createdAt,value
2022-11-04T00:00:34.305Z,995.7
2022-11-04T00:01:37.793Z,995.7
2022-11-04T00:02:41.050Z,995.7
2022-11-04T00:03:45.151Z,995.7
2022-11-04T00:04:48.282Z,995.6
2022-11-04T00:05:51.017Z,995.6
2022-11-04T00:06:54.504Z,995.6
2022-11-04T00:07:58.220Z,995.6
2022-11-04T00:09:01.004Z,995.6
2022-11-04T00:10:04.290Z,995.5
2022-11-04T00:11:07.660Z,995.5
2022-11-04T00:12:09.925Z,995.5
2022-11-04T00:13:12.458Z,995.5
2022-11-04T00:14:15.832Z,995.5
2022-11-04T00:15:18.384Z,995.5
2022-11-04T00:16:22.014Z,995.5
2022-11-04T00:17:24.647Z,995.5
2022-11-04T00:18:27.453Z,995.5
2022-11-04T00:19:31.269Z,995.5
2022-11-04T00:20:34.393Z,995.5
2022-11-04T00:21:37.876Z,995.5
2022-11-04T00:22:41.084Z,995.4
2022-11-04T00:23:43.893Z,995.5
2022-11-04T00:24:46.978Z,995.4
2022-11-04T00:25:49.705Z,995.4
2022-11-04T00:26:52.979Z,995.5
2022-11-04T00:27:55.455Z,995.5
2022-11-04T00:28:58.539Z,995.5
2022-11-04T00:30:00.880Z,995.5
2022-11-04T00:31:04.028Z,995.5
2022-11-04T00:32:07.190Z,995.4
2022-11-04T00:33:09.997Z,995.5
2022-11-04T00:34:12.862Z,995.5
2022-11-04T00:35:16.585Z,995.4
2022-11-04T00:36:19.343Z,995.4
2022-11-04T00:37:22.551Z,995.3
2022-11-04T00:38:26.586Z,995.3
2022-11-04T00:39:29.314Z,995.4
2022-11-04T00:40:32.406Z,995.4
2022-11-04T00:41:35.481Z,995.3
2022-11-04T00:42:39.298Z,995.3
2022-11-04T00:43:42.308Z,995.4
2022-11-04T00:44:45.032Z,995.4
2022-11-04T00:45:48.298Z,995.3
2022-11-04T00:46:50.815Z,995.3
2022-11-04T00:47:53.823Z,995.3
2022-11-04T00:48:56.824Z,995.3
2022-11-04T00:49:59.347Z,995.3
2022-11-04T00:51:02.954Z,995.3
2022-11-04T00:52:06.073Z,995.3
2022-11-04T00:53:09.782Z,995.3
2022-11-04T00:54:14.117Z,995.3
2022-11-04T00:55:17.195Z,995.2
2022-11-04T00:56:19.915Z,995.2
2022-11-04T00:57:22.517Z,995.2
2022-11-04T00:58:26.050Z,995.1
2022-11-04T00:59:28.801Z,995.2
2022-11-04T01:00:31.331Z,995.2
2022-11-04T01:01:34.558Z,995.2
2022-11-04T01:02:38.479Z,995.1
2022-11-04T01:03:41.667Z,995
2022-11-04T01:04:44.576Z,995
2022-11-04T01:05:48.292Z,995
2022-11-04T01:06:51.018Z,995
2022-11-04T01:07:53.379Z,995
2022-11-04T01:08:55.843Z,994.9
2022-11-04T01:09:59.279Z,995
2022-11-04T01:11:02.902Z,994.9
2022-11-04T01:12:05.998Z,994.9
2022-11-04T01:13:10.274Z,994.9
2022-11-04T01:14:14.698Z,994.9
2022-11-04T01:15:17.806Z,994.9
2022-11-04T01:16:21.278Z,994.9
2022-11-04T01:17:24.636Z,994.8
2022-11-04T01:18:27.996Z,994.8
2022-11-04T01:19:30.302Z,994.7
2022-11-04T01:20:32.834Z,994.7
2022-11-04T01:21:35.440Z,994.7
2022-11-04T01:22:38.596Z,994.7
2022-11-04T01:23:41.709Z,994.7
2022-11-04T01:24:44.798Z,994.7
2022-11-04T01:25:47.915Z,994.7
2022-11-04T01:26:50.801Z,994.6
2022-11-04T01:27:54.175Z,994.6
2022-11-04T01:28:57.266Z,994.7
2022-11-04T01:30:00.724Z,994.7
2022-11-04T01:31:03.604Z,994.6
2022-11-04T01:32:07.032Z,994.6
2022-11-04T01:33:09.551Z,994.6
2022-11-04T01:34:12.092Z,994.5
2022-11-04T01:35:15.527Z,994.5
2022-11-04T01:36:18.875Z,994.5
2022-11-04T01:37:21.201Z,994.5
2022-11-04T01:38:23.439Z,994.4
2022-11-04T01:39:26.488Z,994.4
2022-11-04T01:40:29.576Z,994.4
2022-11-04T01:41:33.051Z,994.4
2022-11-04T01:42:36.412Z,994.4
2022-11-04T01:43:39.625Z,994.4
2022-11-04T01:44:42.356Z,994.4
2022-11-04T01:45:45.588Z,994.3
2022-11-04T01:46:49.243Z,994.3
2022-11-04T01:47:52.027Z,994.4
2022-11-04T01:48:55.189Z,994.3
2022-11-04T01:49:57.633Z,994.3
2022-11-04T01:51:00.333Z,994.3
2022-11-04T01:52:03.387Z,994.4
2022-11-04T01:53:07.725Z,994.4
2022-11-04T01:54:12.202Z,994.3
2022-11-04T01:55:15.440Z,994.4
2022-11-04T01:56:18.874Z,994.4
2022-11-04T01:57:22.621Z,994.4
2022-11-04T01:58:25.450Z,994.3
2022-11-04T01:59:28.244Z,994.4
2022-11-04T02:00:31.051Z,994.4
2022-11-04T02:01:35.545Z,994.4
2022-11-04T02:02:39.188Z,994.4
2022-11-04T02:03:43.111Z,994.3
2022-11-04T02:04:46.191Z,994.3
2022-11-04T02:05:49.468Z,994.3
2022-11-04T02:06:52.260Z,994.3
2022-11-04T02:07:54.424Z,994.3
2022-11-04T02:08:57.315Z,994.3
2022-11-04T02:10:00.442Z,994.3
2022-11-04T02:11:03.112Z,994.3
2022-11-04T02:12:05.854Z,994.3
2022-11-04T02:13:10.347Z,994.2
2022-11-04T02:14:14.742Z,994.2
2022-11-04T02:15:17.480Z,994.2
2022-11-04T02:16:19.817Z,994.2
2022-11-04T02:17:23.273Z,994.3
2022-11-04T02:18:26.101Z,994.2
2022-11-04T02:19:29.271Z,994.2
2022-11-04T02:20:32.662Z,994.2
2022-11-04T02:21:35.803Z,994.2
2022-11-04T02:22:38.864Z,994.2
2022-11-04T02:23:42.286Z,994.1
2022-11-04T02:24:45.341Z,994.2
2022-11-04T02:25:48.510Z,994.1
2022-11-04T02:26:51.619Z,994.2
2022-11-04T02:27:55.148Z,994.1
2022-11-04T02:28:58.658Z,994.1
2022-11-04T02:30:01.098Z,994.1
2022-11-04T02:31:03.906Z,994
2022-11-04T02:32:06.422Z,994
2022-11-04T02:33:10.663Z,994
2022-11-04T02:34:14.502Z,994
2022-11-04T02:35:17.836Z,994
2022-11-04T02:36:21.180Z,994
2022-11-04T02:37:23.416Z,994
2022-11-04T02:38:26.222Z,993.9
2022-11-04T02:39:29.217Z,993.9
2022-11-04T02:40:32.369Z,993.9
2022-11-04T02:41:35.454Z,993.9
2022-11-04T02:42:38.294Z,993.9
2022-11-04T02:43:41.189Z,993.9
2022-11-04T02:44:44.963Z,993.9
2022-11-04T02:45:47.962Z,994
2022-11-04T02:46:50.082Z,994
2022-11-04T02:47:53.190Z,994
2022-11-04T02:48:56.638Z,994
2022-11-04T02:49:59.446Z,994
2022-11-04T02:51:02.820Z,994
2022-11-04T02:52:05.895Z,994
2022-11-04T02:53:10.611Z,993.9
2022-11-04T02:54:14.476Z,993.9
2022-11-04T02:55:17.647Z,994
2022-11-04T02:56:20.617Z,994
2022-11-04T02:57:23.403Z,993.9
2022-11-04T02:58:25.972Z,994
2022-11-04T02:59:29.386Z,994
2022-11-04T03:00:33.084Z,993.9
2022-11-04T03:01:36.229Z,993.9
2022-11-04T03:02:40.263Z,994
2022-11-04T03:03:43.912Z,994
2022-11-04T03:04:46.790Z,994
2022-11-04T03:05:50.461Z,993.9
2022-11-04T03:06:53.535Z,993.9
2022-11-04T03:07:56.522Z,993.9
2022-11-04T03:09:00.324Z,993.9
2022-11-04T03:10:03.401Z,993.9
2022-11-04T03:11:07.018Z,993.9
2022-11-04T03:12:10.165Z,993.9
2022-11-04T03:13:13.164Z,993.9
2022-11-04T03:14:16.396Z,993.9
2022-11-04T03:15:19.611Z,993.9
2022-11-04T03:16:23.024Z,993.9
2022-11-04T03:17:25.072Z,993.9
2022-11-04T03:18:27.589Z,993.9
2022-11-04T03:19:31.129Z,993.9
2022-11-04T03:20:34.581Z,993.8
2022-11-04T03:21:37.664Z,993.9
2022-11-04T03:22:40.748Z,993.9
2022-11-04T03:23:44.091Z,993.9
2022-11-04T03:24:47.834Z,993.9
2022-11-04T03:25:50.944Z,994
2022-11-04T03:26:54.126Z,994
2022-11-04T03:27:57.548Z,994.1
2022-11-04T03:29:00.564Z,994.1
2022-11-04T03:30:03.744Z,994
2022-11-04T03:31:07.620Z,994
2022-11-04T03:32:10.576Z,994
2022-11-04T03:33:13.299Z,994
2022-11-04T03:34:16.381Z,994.1
2022-11-04T03:35:19.174Z,994.1
2022-11-04T03:36:22.531Z,994.1
2022-11-04T03:37:25.342Z,994.1
2022-11-04T03:38:28.172Z,994.1
2022-11-04T03:39:30.673Z,994.1
2022-11-04T03:40:33.913Z,994.1
2022-11-04T03:41:37.063Z,994.1
2022-11-04T03:42:39.498Z,994.2
2022-11-04T03:43:42.555Z,994.2
2022-11-04T03:44:45.358Z,994.2
2022-11-04T03:45:47.907Z,994.3
2022-11-04T03:46:51.104Z,994.3
2022-11-04T03:47:54.302Z,994.2
2022-11-04T03:48:57.300Z,994.3
2022-11-04T03:50:00.659Z,994.3
2022-11-04T03:51:03.543Z,994.4
2022-11-04T03:52:07.022Z,994.4
2022-11-04T03:53:10.986Z,994.4
2022-11-04T03:54:17.133Z,994.5
2022-11-04T03:55:21.209Z,994.5
2022-11-04T03:56:24.387Z,994.5
2022-11-04T03:57:27.460Z,994.5
2022-11-04T03:58:29.983Z,994.5
2022-11-04T03:59:32.694Z,994.5
2022-11-04T04:00:35.706Z,994.5
2022-11-04T04:01:38.931Z,994.6
2022-11-04T04:02:43.068Z,994.6
2022-11-04T04:03:46.868Z,994.6
2022-11-04T04:04:49.382Z,994.6
2022-11-04T04:05:52.474Z,994.6
2022-11-04T04:06:55.075Z,994.6
2022-11-04T04:07:58.161Z,994.6
2022-11-04T04:09:01.897Z,994.6
2022-11-04T04:10:04.340Z,994.6
2022-11-04T04:11:07.134Z,994.5
2022-11-04T04:12:09.920Z,994.5
2022-11-04T04:13:13.646Z,994.5
2022-11-04T04:14:17.703Z,994.5
2022-11-04T04:15:20.853Z,994.6
2022-11-04T04:16:27.189Z,994.5
2022-11-04T04:17:30.593Z,994.6
2022-11-04T04:18:33.702Z,994.6
2022-11-04T04:19:37.091Z,994.6
2022-11-04T04:20:39.404Z,994.6
2022-11-04T04:21:42.398Z,994.6
2022-11-04T04:22:45.179Z,994.6
2022-11-04T04:23:48.341Z,994.7
2022-11-04T04:24:51.076Z,994.7
2022-11-04T04:25:54.318Z,994.7
2022-11-04T04:26:57.752Z,994.7
2022-11-04T04:28:01.141Z,994.7
2022-11-04T04:29:04.485Z,994.7
2022-11-04T04:30:07.557Z,994.7
2022-11-04T04:31:10.564Z,994.7
2022-11-04T04:32:13.560Z,994.6
2022-11-04T04:33:16.681Z,994.6
2022-11-04T04:34:19.509Z,994.5
2022-11-04T04:35:22.625Z,994.6
2022-11-04T04:36:25.150Z,994.5
2022-11-04T04:37:27.402Z,994.5
2022-11-04T04:38:30.185Z,994.5
2022-11-04T04:39:32.424Z,994.5
2022-11-04T04:40:35.873Z,994.5
2022-11-04T04:41:38.668Z,994.6
2022-11-04T04:42:41.560Z,994.6
2022-11-04T04:43:44.076Z,994.6
2022-11-04T04:44:47.223Z,994.6
2022-11-04T04:45:50.298Z,994.7
2022-11-04T04:46:53.708Z,994.7
2022-11-04T04:47:56.807Z,994.7
2022-11-04T04:49:00.146Z,994.8
2022-11-04T04:50:03.229Z,994.8
2022-11-04T04:51:06.421Z,994.8
2022-11-04T04:52:09.497Z,994.8
2022-11-04T04:53:12.821Z,994.8
2022-11-04T04:54:16.190Z,994.8
2022-11-04T04:55:19.634Z,994.8
2022-11-04T04:56:22.804Z,994.8
2022-11-04T04:57:25.334Z,994.8
2022-11-04T04:58:28.512Z,994.8
2022-11-04T04:59:30.859Z,994.8
2022-11-04T05:00:34.276Z,994.8
2022-11-04T05:01:37.537Z,994.8
2022-11-04T05:02:41.697Z,994.8
2022-11-04T05:03:45.932Z,994.8
2022-11-04T05:04:48.972Z,994.9
2022-11-04T05:05:54.993Z,994.9
2022-11-04T05:07:01.577Z,994.8
2022-11-04T05:08:05.300Z,994.8
2022-11-04T05:09:10.000Z,994.9
2022-11-04T05:10:13.454Z,994.9
2022-11-04T05:11:16.916Z,994.9
2022-11-04T05:12:28.983Z,995
2022-11-04T05:13:31.489Z,995
2022-11-04T05:14:35.267Z,995
2022-11-04T05:15:38.969Z,995.1
2022-11-04T05:16:42.153Z,995.1
2022-11-04T05:17:45.596Z,995.1
2022-11-04T05:18:48.029Z,995.1
2022-11-04T05:19:50.832Z,995.1
2022-11-04T05:20:53.605Z,995.1
2022-11-04T05:21:56.811Z,995.2
2022-11-04T05:23:00.018Z,995.2
2022-11-04T05:24:03.407Z,995.2
2022-11-04T05:25:06.768Z,995.2
2022-11-04T05:26:09.212Z,995.2
2022-11-04T05:27:12.473Z,995.2
2022-11-04T05:28:15.491Z,995.3
2022-11-04T05:29:18.284Z,995.3
2022-11-04T05:30:21.660Z,995.3
2022-11-04T05:31:24.321Z,995.3
2022-11-04T05:32:27.978Z,995.3
2022-11-04T05:33:31.433Z,995.3
2022-11-04T05:34:34.421Z,995.3
2022-11-04T05:35:37.606Z,995.3
2022-11-04T05:36:40.522Z,995.3
2022-11-04T05:37:43.589Z,995.3
2022-11-04T05:38:46.609Z,995.3
2022-11-04T05:39:49.312Z,995.3
2022-11-04T05:40:52.101Z,995.3
2022-11-04T05:41:55.281Z,995.3
2022-11-04T05:42:58.643Z,995.3
2022-11-04T05:44:02.064Z,995.3
2022-11-04T05:45:04.630Z,995.4
2022-11-04T05:46:06.795Z,995.4
2022-11-04T05:47:09.776Z,995.3
2022-11-04T05:48:11.763Z,995.3
2022-11-04T05:49:14.914Z,995.3
2022-11-04T05:50:18.070Z,995.3
2022-11-04T05:51:21.273Z,995.4
2022-11-04T05:52:24.679Z,995.4
2022-11-04T05:54:30.675Z,995.5
2022-11-04T05:55:34.411Z,995.5
2022-11-04T05:56:37.113Z,995.5
2022-11-04T05:57:39.696Z,995.5
2022-11-04T05:58:43.113Z,995.5
2022-11-04T05:59:46.472Z,995.4
2022-11-04T06:00:49.561Z,995.5
2022-11-04T06:01:52.893Z,995.4
2022-11-04T06:02:56.996Z,995.4
2022-11-04T06:04:00.865Z,995.5
2022-11-04T06:05:04.052Z,995.5
2022-11-04T06:06:06.937Z,995.5
2022-11-04T06:07:10.226Z,995.6
2022-11-04T06:08:13.002Z,995.5
2022-11-04T06:09:15.985Z,995.6
2022-11-04T06:10:19.489Z,995.6
2022-11-04T06:11:22.272Z,995.7
2022-11-04T06:12:25.338Z,995.7
2022-11-04T06:13:28.414Z,995.8
2022-11-04T06:14:31.786Z,995.8
2022-11-04T06:15:34.676Z,995.8
2022-11-04T06:16:37.471Z,995.9
2022-11-04T06:17:40.178Z,995.9
2022-11-04T06:18:42.964Z,996
2022-11-04T06:19:46.397Z,996
2022-11-04T06:20:49.843Z,996
2022-11-04T06:21:52.651Z,995.9
2022-11-04T06:22:55.767Z,996
2022-11-04T06:23:58.141Z,996
2022-11-04T06:25:01.286Z,996
2022-11-04T06:26:04.420Z,996
2022-11-04T06:27:07.865Z,996
2022-11-04T06:28:11.454Z,996
2022-11-04T06:29:14.738Z,996
2022-11-04T06:30:18.122Z,996
2022-11-04T06:31:21.567Z,996
2022-11-04T06:32:25.296Z,995.9
2022-11-04T06:33:36.659Z,996
2022-11-04T06:34:40.037Z,995.9
2022-11-04T06:35:42.588Z,995.9
2022-11-04T06:36:45.764Z,995.9
2022-11-04T06:37:48.847Z,995.9
2022-11-04T06:38:52.290Z,995.9
2022-11-04T06:39:55.485Z,995.9
2022-11-04T06:40:58.677Z,996
2022-11-04T06:42:03.239Z,995.9
2022-11-04T06:43:06.592Z,996
2022-11-04T06:44:10.816Z,996
2022-11-04T06:45:13.411Z,996
2022-11-04T06:46:16.507Z,995.9
2022-11-04T06:47:25.281Z,995.9
2022-11-04T06:48:28.459Z,995.9
2022-11-04T06:49:31.521Z,995.9
2022-11-04T06:50:34.597Z,995.9
2022-11-04T06:51:38.396Z,995.9
2022-11-04T06:52:43.098Z,996
2022-11-04T06:53:45.535Z,996
2022-11-04T06:54:48.702Z,996
2022-11-04T06:55:52.474Z,996
2022-11-04T06:56:55.061Z,996.1
2022-11-04T06:57:58.822Z,996
2022-11-04T06:59:02.277Z,996
2022-11-04T07:00:05.053Z,996
2022-11-04T07:01:20.343Z,996
2022-11-04T07:02:26.700Z,996
2022-11-04T07:03:30.370Z,996.1
2022-11-04T07:04:33.796Z,996
2022-11-04T07:05:36.573Z,996.1
2022-11-04T07:06:43.999Z,996.1
2022-11-04T07:07:48.805Z,996.1
2022-11-04T07:08:52.042Z,996.1
2022-11-04T07:09:54.786Z,996.2
2022-11-04T07:10:57.906Z,996.2
2022-11-04T07:12:00.988Z,996.3
2022-11-04T07:13:04.801Z,996.3
2022-11-04T07:14:07.683Z,996.3
2022-11-04T07:15:10.567Z,996.3
2022-11-04T07:16:13.692Z,996.4
2022-11-04T07:17:15.704Z,996.4
2022-11-04T07:18:19.362Z,996.4
2022-11-04T07:19:22.166Z,996.4
2022-11-04T07:20:25.536Z,996.4
2022-11-04T07:21:29.265Z,996.4
2022-11-04T07:22:32.973Z,996.3
2022-11-04T07:23:35.412Z,996.3
2022-11-04T07:24:39.163Z,996.4
2022-11-04T07:25:42.527Z,996.4
2022-11-04T07:26:46.016Z,996.5
2022-11-04T07:27:49.252Z,996.5
2022-11-04T07:28:52.719Z,996.5
2022-11-04T07:29:55.900Z,996.5
2022-11-04T07:30:58.721Z,996.5
2022-11-04T07:32:02.745Z,996.6
2022-11-04T07:33:06.190Z,996.6
2022-11-04T07:34:09.588Z,996.6
2022-11-04T07:35:12.765Z,996.7
2022-11-04T07:36:15.649Z,996.7
2022-11-04T07:37:18.744Z,996.7
2022-11-04T07:38:21.897Z,996.8
2022-11-04T07:39:24.754Z,996.8
2022-11-04T07:40:27.743Z,996.8
2022-11-04T07:41:30.913Z,996.8
2022-11-04T07:42:34.030Z,996.8
2022-11-04T07:43:37.715Z,996.9
2022-11-04T07:44:41.238Z,996.8
2022-11-04T07:45:44.661Z,996.9
2022-11-04T07:46:48.098Z,996.9
2022-11-04T07:47:50.929Z,996.8
2022-11-04T07:48:53.713Z,996.8
2022-11-04T07:49:57.320Z,996.8
2022-11-04T07:51:01.070Z,996.7
2022-11-04T07:52:04.059Z,996.7
2022-11-04T07:53:07.499Z,996.7
2022-11-04T07:54:12.489Z,996.7
2022-11-04T07:55:15.296Z,996.7
2022-11-04T07:56:17.464Z,996.6
2022-11-04T07:57:21.190Z,996.7
2022-11-04T07:58:23.747Z,996.7
2022-11-04T07:59:26.624Z,996.7
2022-11-04T08:00:30.247Z,996.8
2022-11-04T08:01:33.841Z,996.9
2022-11-04T08:02:37.829Z,996.9
2022-11-04T08:03:40.983Z,996.9
2022-11-04T08:04:44.075Z,996.9
2022-11-04T08:05:47.572Z,996.9
2022-11-04T08:06:51.029Z,996.9
2022-11-04T08:07:54.744Z,997
2022-11-04T08:08:57.962Z,997
2022-11-04T08:10:01.832Z,996.9
2022-11-04T08:11:05.270Z,996.9
2022-11-04T08:12:08.293Z,996.9
2022-11-04T08:13:12.100Z,996.9
2022-11-04T08:14:15.094Z,996.9
2022-11-04T08:15:17.624Z,996.9
2022-11-04T08:16:21.177Z,996.9
2022-11-04T08:17:24.919Z,996.9
2022-11-04T08:18:28.672Z,996.9
2022-11-04T08:19:32.122Z,996.9
2022-11-04T08:20:35.431Z,996.9
2022-11-04T08:21:39.254Z,997
2022-11-04T08:22:42.619Z,997
2022-11-04T08:23:46.000Z,997
2022-11-04T08:24:49.345Z,997
2022-11-04T08:25:52.417Z,996.9
2022-11-04T08:26:55.262Z,996.9
2022-11-04T08:28:01.655Z,996.9
2022-11-04T08:29:04.772Z,996.9
2022-11-04T08:30:07.882Z,996.9
2022-11-04T08:31:10.938Z,997
2022-11-04T08:32:14.323Z,997
2022-11-04T08:33:16.842Z,996.9
2022-11-04T08:34:19.779Z,996.9
2022-11-04T08:35:22.571Z,996.9
2022-11-04T08:36:25.997Z,996.9
2022-11-04T08:37:29.798Z,996.9
2022-11-04T08:38:33.250Z,996.9
2022-11-04T08:39:36.116Z,996.9
2022-11-04T08:40:38.545Z,997
2022-11-04T08:41:41.896Z,996.9
2022-11-04T08:42:44.898Z,996.9
2022-11-04T08:43:47.905Z,997
2022-11-04T08:44:50.729Z,997
2022-11-04T08:45:54.201Z,997
2022-11-04T08:46:57.041Z,997
2022-11-04T08:48:06.025Z,997.1
2022-11-04T08:49:17.964Z,997
2022-11-04T08:50:24.807Z,997
2022-11-04T08:51:27.723Z,997.1
2022-11-04T08:52:30.244Z,997.2
2022-11-04T08:53:33.772Z,997.2
2022-11-04T08:54:37.545Z,997.2
2022-11-04T08:55:40.996Z,997.2
2022-11-04T08:56:44.501Z,997.2
2022-11-04T08:57:48.229Z,997.2
2022-11-04T08:58:51.578Z,997.3
2022-11-04T08:59:55.322Z,997.3
2022-11-04T09:00:58.394Z,997.3
2022-11-04T09:02:01.067Z,997.3
2022-11-04T09:03:05.118Z,997.3
2022-11-04T09:04:07.912Z,997.2
2022-11-04T09:05:11.183Z,997.2
2022-11-04T09:06:14.811Z,997.2
2022-11-04T09:07:18.063Z,997.2
2022-11-04T09:08:21.487Z,997.1
2022-11-04T09:09:25.188Z,997.2
2022-11-04T09:10:27.810Z,997.2
2022-11-04T09:11:30.124Z,997.1
2022-11-04T09:12:32.650Z,997.1
2022-11-04T09:13:40.204Z,997.1
2022-11-04T09:14:43.686Z,997.1
2022-11-04T09:15:46.254Z,997
2022-11-04T09:16:49.808Z,997
2022-11-04T09:17:53.265Z,997
2022-11-04T09:18:56.894Z,997
2022-11-04T09:19:59.390Z,997
2022-11-04T09:21:02.744Z,997.1
2022-11-04T09:22:05.458Z,997.1
2022-11-04T09:23:08.424Z,997.1
2022-11-04T09:24:14.066Z,997.1
2022-11-04T09:25:17.568Z,997.1
2022-11-04T09:26:20.745Z,997.1
2022-11-04T09:27:22.907Z,997.1
2022-11-04T09:28:26.636Z,997
2022-11-04T09:29:29.860Z,997
2022-11-04T09:30:33.246Z,997
2022-11-04T09:31:36.860Z,997
2022-11-04T09:32:40.721Z,997
2022-11-04T09:33:44.001Z,997
2022-11-04T09:34:47.856Z,997
2022-11-04T09:35:51.301Z,997.1
2022-11-04T09:36:54.295Z,997.1
2022-11-04T09:37:57.045Z,997.1
2022-11-04T09:39:00.208Z,997.1
2022-11-04T09:40:03.675Z,997.1
2022-11-04T09:41:07.924Z,997.1
2022-11-04T09:42:11.040Z,997.1
2022-11-04T09:43:14.484Z,997.2
2022-11-04T09:44:17.394Z,997.2
2022-11-04T09:45:23.562Z,997.2
2022-11-04T09:46:26.184Z,997.2
2022-11-04T09:47:29.373Z,997.1
2022-11-04T09:48:32.514Z,997.1
2022-11-04T09:49:35.963Z,997.1
2022-11-04T09:50:39.671Z,997.1
2022-11-04T09:51:58.219Z,997.1
2022-11-04T09:53:01.488Z,997.2
2022-11-04T09:54:04.204Z,997.2
2022-11-04T09:55:07.672Z,997.2
2022-11-04T09:56:11.686Z,997.2
2022-11-04T09:57:14.564Z,997.2
2022-11-04T09:58:18.161Z,997.2
2022-11-04T09:59:21.164Z,997.2
2022-11-04T10:00:23.602Z,997.2
2022-11-04T10:01:27.668Z,997.2
2022-11-04T10:02:32.520Z,997.1
2022-11-04T10:03:36.780Z,997.2
2022-11-04T10:04:40.124Z,997.2
2022-11-04T10:05:43.931Z,997.2
2022-11-04T10:06:46.915Z,997.2
2022-11-04T10:07:50.079Z,997.2
2022-11-04T10:08:53.428Z,997.2
2022-11-04T10:09:56.591Z,997.2
2022-11-04T10:10:59.518Z,997.2
2022-11-04T10:12:03.836Z,997.1
2022-11-04T10:13:07.322Z,997.1
2022-11-04T10:14:12.431Z,997.2
2022-11-04T10:15:15.432Z,997.2
2022-11-04T10:16:18.675Z,997.2
2022-11-04T10:17:21.665Z,997.2
2022-11-04T10:18:25.347Z,997.3
2022-11-04T10:19:28.918Z,997.3
2022-11-04T10:20:32.570Z,997.3
2022-11-04T10:21:36.653Z,997.3
2022-11-04T10:22:39.727Z,997.3
2022-11-04T10:23:42.907Z,997.3
2022-11-04T10:24:45.612Z,997.4
2022-11-04T10:25:48.955Z,997.4
2022-11-04T10:27:00.581Z,997.4
2022-11-04T10:28:04.285Z,997.3
2022-11-04T10:29:07.381Z,997.3
2022-11-04T10:30:10.497Z,997.3
2022-11-04T10:31:12.939Z,997.3
2022-11-04T10:32:22.741Z,997.3
2022-11-04T10:33:25.870Z,997.2
2022-11-04T10:34:28.974Z,997.1
2022-11-04T10:35:32.887Z,997.1
2022-11-04T10:36:35.596Z,997.1
2022-11-04T10:37:38.615Z,997.1
2022-11-04T10:38:41.863Z,997
2022-11-04T10:39:45.035Z,997.1
2022-11-04T10:40:48.301Z,997
2022-11-04T10:41:51.481Z,997.1
2022-11-04T10:42:54.723Z,997.1
2022-11-04T10:43:58.000Z,997.1
2022-11-04T10:45:01.123Z,997.1
2022-11-04T10:46:03.862Z,997.1
2022-11-04T10:47:06.387Z,997.1
2022-11-04T10:48:09.463Z,997.1
2022-11-04T10:49:12.472Z,997.1
2022-11-04T10:50:30.877Z,997.1
2022-11-04T10:51:35.635Z,997
2022-11-04T10:52:38.627Z,997
2022-11-04T10:53:41.565Z,997
2022-11-04T10:54:44.432Z,997
2022-11-04T10:55:47.874Z,997
2022-11-04T10:56:51.484Z,997.1
2022-11-04T10:57:55.409Z,997.1
2022-11-04T10:58:59.073Z,997.2
2022-11-04T11:00:01.939Z,997.2
2022-11-04T11:01:05.366Z,997.2
2022-11-04T11:02:18.023Z,997.3
2022-11-04T11:03:21.654Z,997.3
2022-11-04T11:04:24.480Z,997.4
2022-11-04T11:05:28.185Z,997.4
2022-11-04T11:06:31.328Z,997.3
2022-11-04T11:07:35.112Z,997.4
2022-11-04T11:08:37.646Z,997.4
2022-11-04T11:09:41.056Z,997.4
2022-11-04T11:10:44.163Z,997.4
2022-11-04T11:11:47.266Z,997.5
2022-11-04T11:12:52.425Z,997.5
2022-11-04T11:13:55.851Z,997.5
2022-11-04T11:14:59.936Z,997.6
2022-11-04T11:16:03.449Z,997.6
2022-11-04T11:17:06.245Z,997.6
2022-11-04T11:18:09.235Z,997.7
2022-11-04T11:19:12.328Z,997.7
2022-11-04T11:20:15.492Z,997.7
2022-11-04T11:21:18.140Z,997.7
2022-11-04T11:22:20.655Z,997.7
2022-11-04T11:23:23.445Z,997.7
2022-11-04T11:24:26.491Z,997.8
2022-11-04T11:25:29.792Z,997.8
2022-11-04T11:26:32.249Z,997.8
2022-11-04T11:27:35.697Z,997.8
2022-11-04T11:28:39.060Z,997.8
2022-11-04T11:29:41.828Z,997.8
2022-11-04T11:30:44.654Z,997.9
2022-11-04T11:31:48.729Z,997.9
2022-11-04T11:32:51.524Z,997.9
2022-11-04T11:33:54.956Z,998
2022-11-04T11:34:57.209Z,998
2022-11-04T11:35:59.893Z,998
2022-11-04T11:37:03.206Z,998
2022-11-04T11:38:06.005Z,998
2022-11-04T11:39:09.088Z,998
2022-11-04T11:40:11.793Z,998
2022-11-04T11:41:30.199Z,998
2022-11-04T11:42:33.036Z,998
2022-11-04T11:43:36.138Z,998
2022-11-04T11:44:39.272Z,998
2022-11-04T11:45:42.337Z,998.1
2022-11-04T11:46:45.227Z,998
2022-11-04T11:47:48.345Z,998
2022-11-04T11:48:50.865Z,998
2022-11-04T11:49:54.305Z,998
2022-11-04T11:50:57.765Z,998
2022-11-04T11:52:00.777Z,998
2022-11-04T11:53:03.399Z,998
2022-11-04T11:54:06.218Z,998
2022-11-04T11:55:09.178Z,998
2022-11-04T11:56:11.999Z,998
2022-11-04T11:57:25.105Z,998
2022-11-04T12:01:46.550Z,998.1
2022-11-04T12:02:50.866Z,998
2022-11-04T12:10:51.265Z,998
2022-11-04T12:11:55.592Z,998
2022-11-04T12:12:59.201Z,998
2022-11-04T12:14:02.264Z,998
2022-11-04T12:15:05.078Z,998
2022-11-04T12:16:07.585Z,998.1
2022-11-04T12:17:10.119Z,998.1
2022-11-04T12:18:13.638Z,998.1
2022-11-04T12:19:17.773Z,998.1
2022-11-04T12:20:21.485Z,998.1
2022-11-04T12:21:24.860Z,998.1
2022-11-04T12:22:27.654Z,998.1
2022-11-04T12:23:30.644Z,998.1
2022-11-04T12:24:34.352Z,998.1
2022-11-04T12:25:37.799Z,998.1
2022-11-04T12:26:40.905Z,998.2
2022-11-04T12:27:43.914Z,998.2
2022-11-04T12:28:47.160Z,998.2
2022-11-04T12:29:50.784Z,998.2
2022-11-04T12:30:53.878Z,998.2
2022-11-04T12:31:57.061Z,998.3
2022-11-04T12:33:00.224Z,998.3
2022-11-04T12:34:03.676Z,998.3
2022-11-04T12:35:07.400Z,998.3
2022-11-04T12:36:10.822Z,998.4
2022-11-04T12:37:14.331Z,998.4
2022-11-04T12:38:17.483Z,998.4
2022-11-04T12:39:20.732Z,998.4
2022-11-04T12:40:23.834Z,998.4
2022-11-04T12:42:19.320Z,998.3
2022-11-04T12:43:35.227Z,998.3
2022-11-04T12:44:38.910Z,998.3
2022-11-04T12:45:42.434Z,998.3
2022-11-04T12:46:44.889Z,998.2
2022-11-04T12:47:47.958Z,998.2
2022-11-04T12:48:59.873Z,998.3
2022-11-04T12:50:10.466Z,998.3
2022-11-04T12:51:13.631Z,998.3
2022-11-04T12:52:17.437Z,998.3
2022-11-04T12:53:21.056Z,998.3
2022-11-04T12:54:23.786Z,998.3
2022-11-04T12:55:27.509Z,998.3
2022-11-04T12:56:30.607Z,998.3
2022-11-04T12:57:33.706Z,998.3
2022-11-04T12:58:37.134Z,998.3
2022-11-04T12:59:39.766Z,998.3
2022-11-04T13:00:43.683Z,998.3
2022-11-04T13:01:47.487Z,998.3
2022-11-04T13:02:51.589Z,998.3
2022-11-04T13:03:54.745Z,998.3
2022-11-04T13:04:57.913Z,998.3
2022-11-04T13:06:01.503Z,998.3
2022-11-04T13:07:04.646Z,998.3
2022-11-04T13:08:14.594Z,998.3
2022-11-04T13:09:17.752Z,998.3
2022-11-04T13:10:21.118Z,998.3
2022-11-04T13:11:24.226Z,998.3
2022-11-04T13:12:27.653Z,998.3
2022-11-04T13:13:31.027Z,998.3
2022-11-04T13:14:34.176Z,998.3
2022-11-04T13:15:37.393Z,998.4
2022-11-04T13:16:41.062Z,998.3
2022-11-04T13:17:45.312Z,998.4
2022-11-04T13:18:48.587Z,998.4
2022-11-04T13:19:51.953Z,998.3
2022-11-04T13:21:02.622Z,998.4
2022-11-04T13:22:06.416Z,998.4
2022-11-04T13:23:10.215Z,998.5
2022-11-04T13:24:15.088Z,998.5
2022-11-04T13:25:18.246Z,998.5
2022-11-04T13:26:21.805Z,998.5
2022-11-04T13:27:24.716Z,998.5
2022-11-04T13:28:28.524Z,998.5
2022-11-04T13:29:31.056Z,998.6
2022-11-04T13:30:34.776Z,998.6
2022-11-04T13:31:37.677Z,998.5
2022-11-04T13:32:41.383Z,998.6
2022-11-04T13:33:43.896Z,998.6
2022-11-04T13:34:46.692Z,998.6
2022-11-04T13:35:49.838Z,998.6
2022-11-04T13:36:53.286Z,998.6
2022-11-04T13:37:56.995Z,998.7
2022-11-04T13:38:59.810Z,998.7
2022-11-04T13:40:02.531Z,998.7
2022-11-04T13:41:14.243Z,998.7
2022-11-04T13:42:24.177Z,998.7
2022-11-04T13:43:27.643Z,998.7
2022-11-04T13:44:30.483Z,998.7
2022-11-04T13:45:33.882Z,998.7
2022-11-04T13:46:38.366Z,998.7
2022-11-04T13:47:41.826Z,998.8
2022-11-04T13:48:45.396Z,998.8
2022-11-04T13:49:48.482Z,998.8
2022-11-04T13:50:51.281Z,998.8
2022-11-04T13:51:53.812Z,998.8
2022-11-04T13:52:57.448Z,998.8
2022-11-04T13:54:00.904Z,998.8
2022-11-04T13:55:04.368Z,998.8
2022-11-04T13:56:34.087Z,998.8
2022-11-04T13:57:37.943Z,998.8
2022-11-04T13:58:47.508Z,998.8